createdAt,value
2019-05-17T00:00:37.128Z,57.20
2019-05-17T00:03:06.622Z,57.10
2019-05-17T00:05:33.919Z,57.10
2019-05-17T00:08:01.778Z,57.10
2019-05-17T00:10:29.595Z,57.00
2019-05-17T00:12:57.582Z,57.10
2019-05-17T00:15:27.366Z,57.20
2019-05-17T00:17:57.074Z,57.10
2019-05-17T00:20:26.645Z,57.10
2019-05-17T00:22:54.231Z,57.00
2019-05-17T00:25:22.141Z,57.00
2019-05-17T00:27:49.938Z,56.40
2019-05-17T00:30:17.881Z,56.90
2019-05-17T00:32:47.571Z,56.90
2019-05-17T00:35:17.695Z,56.90
2019-05-17T00:37:46.509Z,56.80
2019-05-17T00:40:16.645Z,56.80
2019-05-17T00:42:46.424Z,56.80
2019-05-17T00:45:14.078Z,56.80
2019-05-17T00:47:41.911Z,56.80
2019-05-17T00:50:09.817Z,56.70
2019-05-17T00:52:37.658Z,57.30
2019-05-17T00:55:06.771Z,57.20
2019-05-17T00:57:36.871Z,56.70
2019-05-17T01:00:05.600Z,56.60
2019-05-17T01:02:33.659Z,56.60
2019-05-17T01:05:01.444Z,56.60
2019-05-17T01:07:29.497Z,56.50
2019-05-17T01:09:57.463Z,56.40
2019-05-17T01:12:27.122Z,56.40
2019-05-17T01:14:54.927Z,56.40
2019-05-17T01:17:22.802Z,56.40
2019-05-17T01:19:50.759Z,56.40
2019-05-17T01:22:18.663Z,56.50
2019-05-17T01:24:46.606Z,56.50
2019-05-17T01:27:14.458Z,56.60
2019-05-17T01:29:42.350Z,56.60
2019-05-17T01:32:10.193Z,56.70
2019-05-17T01:34:38.176Z,56.60
2019-05-17T01:37:06.581Z,56.50
2019-05-17T01:39:34.579Z,56.60
2019-05-17T01:42:02.386Z,56.50
2019-05-17T01:44:30.346Z,56.60
2019-05-17T01:46:58.151Z,56.50
2019-05-17T01:49:27.131Z,56.60
2019-05-17T01:51:56.881Z,56.50
2019-05-17T01:54:26.764Z,56.50
2019-05-17T01:56:56.520Z,56.50
2019-05-17T01:59:23.666Z,56.50
2019-05-17T02:01:53.205Z,56.50
2019-05-17T02:04:21.084Z,56.50
2019-05-17T02:06:48.926Z,56.40
2019-05-17T02:09:33.494Z,56.50
2019-05-17T02:11:46.682Z,56.50
2019-05-17T02:14:16.541Z,56.40
2019-05-17T02:16:46.613Z,56.30
2019-05-17T02:19:13.790Z,56.40
2019-05-17T02:21:41.657Z,56.30
2019-05-17T02:24:09.630Z,56.30
2019-05-17T02:26:37.640Z,56.20
2019-05-17T02:29:05.442Z,56.20
2019-05-17T02:31:33.428Z,56.20
2019-05-17T02:34:03.093Z,56.20
2019-05-17T02:36:33.248Z,56.20
2019-05-17T02:39:03.402Z,56.10
2019-05-17T02:41:33.061Z,56.10
2019-05-17T02:44:02.159Z,56.10
2019-05-17T02:46:29.088Z,56.00
2019-05-17T02:48:56.998Z,56.20
2019-05-17T02:51:24.851Z,56.10
2019-05-17T02:53:52.860Z,56.10
2019-05-17T02:56:23.085Z,56.00
2019-05-17T02:58:53.017Z,56.10
2019-05-17T03:01:22.919Z,56.00
2019-05-17T03:03:52.618Z,56.00
2019-05-17T03:06:18.843Z,56.10
2019-05-17T03:08:46.997Z,56.00
2019-05-17T03:11:14.964Z,56.00
2019-05-17T03:13:43.562Z,55.90
2019-05-17T03:16:14.602Z,55.90
2019-05-17T03:18:43.873Z,55.90
2019-05-17T03:21:13.527Z,55.90
2019-05-17T03:23:43.283Z,55.90
2019-05-17T03:26:12.974Z,55.80
2019-05-17T03:28:42.458Z,55.80
2019-05-17T03:31:09.667Z,55.80
2019-05-17T03:33:38.347Z,55.80
2019-05-17T03:36:07.350Z,55.80
2019-05-17T03:38:35.719Z,55.80
2019-05-17T03:41:17.897Z,55.80
2019-05-17T03:43:35.229Z,55.70
2019-05-17T03:46:03.073Z,55.80
2019-05-17T03:48:33.338Z,55.70
2019-05-17T03:51:02.598Z,55.80
2019-05-17T03:53:33.111Z,55.70
2019-05-17T03:56:02.663Z,55.60
2019-05-17T03:58:33.030Z,55.60
2019-05-17T04:00:58.908Z,55.60
2019-05-17T04:03:30.796Z,55.60
2019-05-17T04:05:56.381Z,55.50
2019-05-17T04:08:24.345Z,55.50
2019-05-17T04:10:53.039Z,55.50
2019-05-17T04:13:23.384Z,55.50
2019-05-17T04:15:53.037Z,55.50
2019-05-17T04:18:23.211Z,55.40
2019-05-17T04:20:52.655Z,55.40
2019-05-17T04:23:22.988Z,55.50
2019-05-17T04:25:49.140Z,55.40
2019-05-17T04:28:17.211Z,55.50
2019-05-17T04:30:45.011Z,55.30
2019-05-17T04:33:13.064Z,55.40
2019-05-17T04:35:43.225Z,56.00
2019-05-17T04:38:12.780Z,55.40
2019-05-17T04:40:42.941Z,55.50
2019-05-17T04:43:09.746Z,55.40
2019-05-17T04:45:37.743Z,55.50
2019-05-17T04:48:05.582Z,55.50
2019-05-17T04:50:33.923Z,55.50
2019-05-17T04:53:02.574Z,55.30
2019-05-17T04:55:34.067Z,54.80
2019-05-17T04:58:03.478Z,54.60
2019-05-17T05:00:29.759Z,54.60
2019-05-17T05:02:57.605Z,54.50
2019-05-17T05:05:25.409Z,54.40
2019-05-17T05:07:53.729Z,54.40
2019-05-17T05:10:22.562Z,54.40
2019-05-17T05:12:52.439Z,54.40
2019-05-17T05:15:22.548Z,54.40
2019-05-17T05:17:52.635Z,54.30
2019-05-17T05:20:22.110Z,54.40
2019-05-17T05:22:49.235Z,54.40
2019-05-17T05:25:16.960Z,54.40
2019-05-17T05:27:44.810Z,54.50
2019-05-17T05:30:12.770Z,54.40
2019-05-17T05:32:42.551Z,54.50
2019-05-17T05:35:12.442Z,54.50
2019-05-17T05:37:42.171Z,55.00
2019-05-17T05:40:09.503Z,54.40
2019-05-17T05:42:37.477Z,54.60
2019-05-17T05:45:05.289Z,54.60
2019-05-17T05:47:33.202Z,54.60
2019-05-17T05:50:01.647Z,54.60
2019-05-17T05:52:32.251Z,54.80
2019-05-17T05:55:01.380Z,54.80
2019-05-17T05:57:28.977Z,54.70
2019-05-17T05:59:57.049Z,54.70
2019-05-17T06:02:24.904Z,54.90
2019-05-17T06:04:53.063Z,54.90
2019-05-17T06:07:21.618Z,54.90
2019-05-17T06:09:51.798Z,55.00
2019-05-17T06:12:26.954Z,55.60
2019-05-17T06:14:48.684Z,55.00
2019-05-17T06:17:16.588Z,55.00
2019-05-17T06:19:44.507Z,55.00
2019-05-17T06:22:12.343Z,55.00
2019-05-17T06:24:42.351Z,55.00
2019-05-17T06:27:12.196Z,54.90
2019-05-17T06:29:41.376Z,55.00
2019-05-17T06:32:09.041Z,55.00
2019-05-17T06:34:38.134Z,55.00
2019-05-17T06:37:05.906Z,55.10
2019-05-17T06:39:33.711Z,55.00
2019-05-17T06:42:02.749Z,55.00
2019-05-17T06:44:32.479Z,54.60
2019-05-17T06:47:02.604Z,54.40
2019-05-17T06:49:31.826Z,54.30
2019-05-17T06:52:02.232Z,54.50
2019-05-17T06:54:29.675Z,54.40
2019-05-17T06:56:57.638Z,54.50
2019-05-17T06:59:25.591Z,54.50
2019-05-17T07:01:53.726Z,54.40
2019-05-17T07:04:21.634Z,54.60
2019-05-17T07:06:51.135Z,54.60
2019-05-17T07:09:19.539Z,54.70
2019-05-17T07:11:47.715Z,54.80
2019-05-17T07:14:15.646Z,54.80
2019-05-17T07:16:43.774Z,55.00
2019-05-17T07:19:11.798Z,55.60
2019-05-17T07:21:40.446Z,55.10
2019-05-17T07:24:10.052Z,55.20
2019-05-17T07:26:39.378Z,55.20
2019-05-17T07:29:09.873Z,55.20
2019-05-17T07:31:37.087Z,55.30
2019-05-17T07:34:05.142Z,55.30
2019-05-17T07:36:33.110Z,55.40
2019-05-17T07:39:01.191Z,55.40
2019-05-17T07:41:29.840Z,55.40
2019-05-17T07:43:57.846Z,56.10
2019-05-17T07:46:26.309Z,55.70
2019-05-17T07:48:54.192Z,55.80
2019-05-17T07:51:22.095Z,55.90
2019-05-17T07:53:49.919Z,56.00
2019-05-17T07:56:20.037Z,55.80
2019-05-17T07:58:49.464Z,55.70
2019-05-17T08:01:17.614Z,55.50
2019-05-17T08:03:45.525Z,55.40
2019-05-17T08:06:13.457Z,55.30
2019-05-17T08:08:41.367Z,55.30
2019-05-17T08:11:10.575Z,55.20
2019-05-17T08:13:39.871Z,55.10
2019-05-17T08:16:10.123Z,55.10
2019-05-17T08:18:37.451Z,55.10
2019-05-17T08:21:05.278Z,55.00
2019-05-17T08:23:33.240Z,55.10
2019-05-17T08:26:01.187Z,55.10
2019-05-17T08:28:31.241Z,55.30
2019-05-17T08:31:01.121Z,55.40
2019-05-17T08:33:29.887Z,55.30
2019-05-17T08:35:59.771Z,55.10
2019-05-17T08:38:30.578Z,55.00
2019-05-17T08:41:00.685Z,55.10
2019-05-17T08:43:39.747Z,55.40
2019-05-17T08:45:59.311Z,55.10
2019-05-17T08:48:29.351Z,55.00
2019-05-17T08:50:57.123Z,55.10
2019-05-17T08:53:24.920Z,55.30
2019-05-17T08:55:53.006Z,55.60
2019-05-17T08:58:21.526Z,55.70
2019-05-17T09:00:50.521Z,55.50
2019-05-17T09:03:19.587Z,55.60
2019-05-17T09:05:52.109Z,55.40
2019-05-17T09:08:17.359Z,55.40
2019-05-17T09:10:45.321Z,55.30
2019-05-17T09:13:14.774Z,55.10
2019-05-17T09:15:42.801Z,55.40
2019-05-17T09:18:10.865Z,55.60
2019-05-17T09:20:40.487Z,55.60
2019-05-17T09:23:09.712Z,55.90
2019-05-17T09:25:39.718Z,56.00
2019-05-17T09:28:09.891Z,56.00
2019-05-17T09:30:37.166Z,55.90
2019-05-17T09:33:05.199Z,55.50
2019-05-17T09:35:33.131Z,55.30
2019-05-17T09:38:01.493Z,55.60
2019-05-17T09:40:29.450Z,54.90
2019-05-17T09:42:57.331Z,54.60
2019-05-17T09:45:25.288Z,54.60
2019-05-17T09:47:53.240Z,55.00
2019-05-17T09:50:21.525Z,54.90
2019-05-17T09:52:49.666Z,54.60
2019-05-17T09:55:19.418Z,54.60
2019-05-17T09:57:49.472Z,54.60
2019-05-17T10:00:16.784Z,54.70
2019-05-17T10:02:44.746Z,54.70
2019-05-17T10:05:12.821Z,53.90
2019-05-17T10:07:40.707Z,54.00
2019-05-17T10:10:10.397Z,53.90
2019-05-17T10:12:40.344Z,53.90
2019-05-17T10:15:09.816Z,53.70
2019-05-17T10:17:37.374Z,53.50
2019-05-17T10:20:06.063Z,53.60
2019-05-17T10:22:34.028Z,53.50
2019-05-17T10:25:01.988Z,53.20
2019-05-17T10:27:49.792Z,53.20
2019-05-17T10:30:18.009Z,53.20
2019-05-17T10:32:46.186Z,52.70
2019-05-17T10:35:14.352Z,52.50
2019-05-17T10:37:42.205Z,52.60
2019-05-17T10:40:10.696Z,52.70
2019-05-17T10:42:39.561Z,52.70
2019-05-17T10:45:10.562Z,52.60
2019-05-17T10:47:39.631Z,52.60
2019-05-17T10:50:07.280Z,52.30
2019-05-17T10:52:35.362Z,52.10
2019-05-17T10:55:03.759Z,52.10
2019-05-17T10:57:31.803Z,52.00
2019-05-17T10:59:59.612Z,52.10
2019-05-17T11:02:30.185Z,52.10
2019-05-17T11:05:00.773Z,51.90
2019-05-17T11:07:28.578Z,51.80
2019-05-17T11:09:56.547Z,51.60
2019-05-17T11:12:24.518Z,51.70
2019-05-17T11:15:09.687Z,51.50
2019-05-17T11:17:23.286Z,51.50
2019-05-17T11:19:51.186Z,51.90
2019-05-17T11:22:19.274Z,51.80
2019-05-17T11:24:47.063Z,52.20
2019-05-17T11:27:15.209Z,52.20
2019-05-17T11:29:43.171Z,52.60
2019-05-17T11:32:11.082Z,52.50
2019-05-17T11:34:39.073Z,52.10
2019-05-17T11:37:07.190Z,52.40
2019-05-17T11:39:35.283Z,52.10
2019-05-17T11:42:03.223Z,52.20
2019-05-17T11:44:31.302Z,52.00
2019-05-17T11:46:59.190Z,51.90
2019-05-17T11:49:27.440Z,51.70
2019-05-17T11:51:55.353Z,51.70
2019-05-17T11:54:23.417Z,51.70
2019-05-17T11:56:51.340Z,51.50
2019-05-17T11:59:19.347Z,51.50
2019-05-17T12:01:48.502Z,51.60
2019-05-17T12:04:16.498Z,51.50
2019-05-17T12:06:44.443Z,51.50
2019-05-17T12:09:12.419Z,51.60
2019-05-17T12:11:40.376Z,51.70
2019-05-17T12:14:08.257Z,51.60
2019-05-17T12:16:36.221Z,51.70
2019-05-17T12:19:04.124Z,51.60
2019-05-17T12:21:32.041Z,51.50
2019-05-17T12:23:59.926Z,51.60
2019-05-17T12:26:27.746Z,51.60
2019-05-17T12:28:55.758Z,51.70
2019-05-17T12:31:23.821Z,51.70
2019-05-17T12:33:51.958Z,51.70
2019-05-17T12:36:19.876Z,51.60
2019-05-17T12:38:47.897Z,51.50
2019-05-17T12:41:15.827Z,51.50
2019-05-17T12:43:43.775Z,51.50
2019-05-17T12:46:11.675Z,51.50
2019-05-17T12:48:39.609Z,51.50
2019-05-17T12:51:07.571Z,51.50
2019-05-17T12:53:35.756Z,51.50
2019-05-17T12:56:03.822Z,51.60
2019-05-17T12:58:31.782Z,51.70
2019-05-17T13:00:59.662Z,51.70
2019-05-17T13:03:27.515Z,51.70
2019-05-17T13:05:55.496Z,51.50
2019-05-17T13:08:23.675Z,51.60
2019-05-17T13:10:51.622Z,51.60
2019-05-17T13:13:19.543Z,51.50
2019-05-17T13:15:47.418Z,51.40
2019-05-17T13:18:15.479Z,51.40
2019-05-17T13:20:43.438Z,51.30
2019-05-17T13:23:11.375Z,51.20
2019-05-17T13:25:39.455Z,51.30
2019-05-17T13:28:07.407Z,51.30
2019-05-17T13:30:35.596Z,51.20
2019-05-17T13:33:03.495Z,51.30
2019-05-17T13:35:31.452Z,51.40
2019-05-17T13:37:59.382Z,51.50
2019-05-17T13:40:27.549Z,51.70
2019-05-17T13:42:55.326Z,51.40
2019-05-17T13:45:23.295Z,51.40
2019-05-17T13:47:51.265Z,51.30
2019-05-17T13:50:19.347Z,51.40
2019-05-17T13:52:47.282Z,51.40
2019-05-17T13:55:15.267Z,51.70
2019-05-17T13:57:43.238Z,51.50
2019-05-17T14:00:11.306Z,51.20
2019-05-17T14:02:39.135Z,51.20
2019-05-17T14:05:07.246Z,51.20
2019-05-17T14:07:35.116Z,50.70
2019-05-17T14:10:03.604Z,51.10
2019-05-17T14:12:31.675Z,51.00
2019-05-17T14:14:59.737Z,50.70
2019-05-17T14:17:27.961Z,50.70
2019-05-17T14:19:55.892Z,50.70
2019-05-17T14:22:23.847Z,50.80
2019-05-17T14:24:51.647Z,51.00
2019-05-17T14:27:19.585Z,50.80
2019-05-17T14:29:47.663Z,50.50
2019-05-17T14:32:15.620Z,50.40
2019-05-17T14:34:43.488Z,50.40
2019-05-17T14:37:11.376Z,50.30
2019-05-17T14:39:39.948Z,50.30
2019-05-17T14:42:07.902Z,50.30
2019-05-17T14:44:35.783Z,50.20
2019-05-17T14:47:04.972Z,50.20
2019-05-17T14:49:32.887Z,50.30
2019-05-17T14:52:00.811Z,50.30
2019-05-17T14:54:28.758Z,50.50
2019-05-17T14:56:56.861Z,50.10
2019-05-17T14:59:24.875Z,50.00
2019-05-17T15:01:54.063Z,50.10
2019-05-17T15:04:22.199Z,50.30
2019-05-17T15:06:52.702Z,50.30
2019-05-17T15:09:20.813Z,50.50
2019-05-17T15:11:48.854Z,51.00
2019-05-17T15:14:16.933Z,50.70
2019-05-17T15:16:44.995Z,50.40
2019-05-17T15:19:12.985Z,50.20
2019-05-17T15:21:41.062Z,50.10
2019-05-17T15:24:08.983Z,49.90
2019-05-17T15:26:37.031Z,49.70
2019-05-17T15:29:05.119Z,49.80
2019-05-17T15:31:33.228Z,49.70
2019-05-17T15:34:01.352Z,49.60
2019-05-17T15:36:29.359Z,49.50
2019-05-17T15:38:57.442Z,49.30
2019-05-17T15:41:25.358Z,49.40
2019-05-17T15:43:53.377Z,49.20
2019-05-17T15:46:21.355Z,49.40
2019-05-17T15:48:49.110Z,49.40
2019-05-17T15:51:17.165Z,50.30
2019-05-17T15:53:45.138Z,56.00
2019-05-17T15:56:13.130Z,56.20
2019-05-17T15:58:40.917Z,55.20
2019-05-17T16:01:09.057Z,53.70
2019-05-17T16:03:37.028Z,52.50
2019-05-17T16:06:04.872Z,51.50
2019-05-17T16:08:32.816Z,51.20
2019-05-17T16:11:02.156Z,50.40
2019-05-17T16:13:30.100Z,49.60
2019-05-17T16:15:58.087Z,49.10
2019-05-17T16:18:26.375Z,48.80
2019-05-17T16:20:54.385Z,48.60
2019-05-17T16:23:22.399Z,48.30
2019-05-17T16:25:50.280Z,48.20
2019-05-17T16:28:18.358Z,48.20
2019-05-17T16:30:46.327Z,48.20
2019-05-17T16:33:14.298Z,48.00
2019-05-17T16:35:42.362Z,47.90
2019-05-17T16:38:10.339Z,47.90
2019-05-17T16:40:38.387Z,47.90
2019-05-17T16:43:17.568Z,47.80
2019-05-17T16:45:36.077Z,47.70
2019-05-17T16:48:04.039Z,47.60
2019-05-17T16:50:32.014Z,47.60
2019-05-17T16:53:05.934Z,47.60
2019-05-17T16:55:30.224Z,47.50
2019-05-17T16:57:58.074Z,47.90
2019-05-17T17:00:27.488Z,47.60
2019-05-17T17:02:55.638Z,47.60
2019-05-17T17:05:23.716Z,47.50
2019-05-17T17:07:51.699Z,47.40
2019-05-17T17:10:19.853Z,47.40
2019-05-17T17:12:47.833Z,47.40
2019-05-17T17:15:30.063Z,47.40
2019-05-17T17:17:58.113Z,47.40
2019-05-17T17:20:26.182Z,47.50
2019-05-17T17:22:54.138Z,47.50
2019-05-17T17:25:22.079Z,47.70
2019-05-17T17:27:49.972Z,47.80
2019-05-17T17:30:18.151Z,48.10
2019-05-17T17:32:46.226Z,48.20
2019-05-17T17:35:15.009Z,48.20
2019-05-17T17:37:42.997Z,48.30
2019-05-17T17:40:10.891Z,48.40
2019-05-17T17:42:38.919Z,48.50
2019-05-17T17:45:07.182Z,48.50
2019-05-17T17:47:35.137Z,48.60
2019-05-17T17:50:04.083Z,48.70
2019-05-17T17:52:34.599Z,48.70
2019-05-17T17:55:01.731Z,48.60
2019-05-17T17:57:29.593Z,48.80
2019-05-17T17:59:57.666Z,48.80
2019-05-17T18:02:25.586Z,49.30
2019-05-17T18:04:53.443Z,48.90
2019-05-17T18:07:21.383Z,49.10
2019-05-17T18:09:49.335Z,49.10
2019-05-17T18:12:17.304Z,49.00
2019-05-17T18:14:45.062Z,49.30
2019-05-17T18:17:13.043Z,49.40
2019-05-17T18:19:41.005Z,49.60
2019-05-17T18:22:08.963Z,49.60
2019-05-17T18:24:36.929Z,49.30
2019-05-17T18:27:04.773Z,48.70
2019-05-17T18:29:32.871Z,48.50
2019-05-17T18:32:00.877Z,48.50
2019-05-17T18:34:28.827Z,48.70
2019-05-17T18:36:58.311Z,49.40
2019-05-17T18:39:26.293Z,49.70
2019-05-17T18:41:54.877Z,50.00
2019-05-17T18:44:27.727Z,50.30
2019-05-17T18:46:52.555Z,50.50
2019-05-17T18:49:20.835Z,50.60
2019-05-17T18:51:50.130Z,50.70
2019-05-17T18:54:18.201Z,50.80
2019-05-17T18:56:46.065Z,50.90
2019-05-17T18:59:14.059Z,50.80
2019-05-17T19:01:41.996Z,50.90
2019-05-17T19:04:09.976Z,50.90
2019-05-17T19:06:38.038Z,51.00
2019-05-17T19:09:06.784Z,51.00
2019-05-17T19:11:34.617Z,50.90
2019-05-17T19:14:02.477Z,51.00
2019-05-17T19:16:30.338Z,51.00
2019-05-17T19:18:59.405Z,51.20
2019-05-17T19:21:27.594Z,51.10
2019-05-17T19:23:55.426Z,51.10
2019-05-17T19:26:23.431Z,51.10
2019-05-17T19:28:51.503Z,51.20
2019-05-17T19:31:19.330Z,51.20
2019-05-17T19:33:47.355Z,51.20
2019-05-17T19:36:15.230Z,51.10
2019-05-17T19:38:43.280Z,51.00
2019-05-17T19:41:11.247Z,51.00
2019-05-17T19:43:39.193Z,51.00
2019-05-17T19:46:07.076Z,51.00
2019-05-17T19:48:35.152Z,51.10
2019-05-17T19:51:03.114Z,51.00
2019-05-17T19:53:31.010Z,50.80
2019-05-17T19:55:58.942Z,51.10
2019-05-17T19:58:26.772Z,51.40
2019-05-17T20:00:54.791Z,51.50
2019-05-17T20:03:22.628Z,51.70
2019-05-17T20:05:50.473Z,51.70
2019-05-17T20:08:18.293Z,51.90
2019-05-17T20:10:47.717Z,51.80
2019-05-17T20:13:15.577Z,51.80
2019-05-17T20:15:43.831Z,51.90
2019-05-17T20:18:11.760Z,52.00
2019-05-17T20:20:39.562Z,52.00
2019-05-17T20:23:07.211Z,52.00
2019-05-17T20:25:35.080Z,52.00
2019-05-17T20:28:02.929Z,52.20
2019-05-17T20:30:30.813Z,52.10
2019-05-17T20:32:58.591Z,52.20
2019-05-17T20:35:26.468Z,52.30
2019-05-17T20:37:54.209Z,52.30
2019-05-17T20:40:22.069Z,52.30
2019-05-17T20:42:49.832Z,52.40
2019-05-17T20:45:32.051Z,52.40
2019-05-17T20:47:47.315Z,52.40
2019-05-17T20:50:15.176Z,52.40
2019-05-17T20:52:43.006Z,52.40
2019-05-17T20:55:11.023Z,51.70
2019-05-17T20:57:38.832Z,51.30
2019-05-17T21:00:06.951Z,51.80
2019-05-17T21:02:34.686Z,51.90
2019-05-17T21:05:02.683Z,51.90
2019-05-17T21:07:30.661Z,52.00
2019-05-17T21:09:59.317Z,52.10
2019-05-17T21:12:27.419Z,52.10
2019-05-17T21:14:56.527Z,51.90
2019-05-17T21:17:24.785Z,51.90
2019-05-17T21:19:52.746Z,52.40
2019-05-17T21:22:20.614Z,51.90
2019-05-17T21:24:48.598Z,51.80
2019-05-17T21:27:16.551Z,51.80
2019-05-17T21:29:44.539Z,51.80
2019-05-17T21:32:12.362Z,51.90
2019-05-17T21:34:40.182Z,51.70
2019-05-17T21:37:08.184Z,51.80
2019-05-17T21:39:36.201Z,51.70
2019-05-17T21:42:04.159Z,51.70
2019-05-17T21:44:32.230Z,51.80
2019-05-17T21:47:04.612Z,51.80
2019-05-17T21:49:29.707Z,51.70
2019-05-17T21:51:57.896Z,51.80
2019-05-17T21:54:25.856Z,51.60
2019-05-17T21:56:53.931Z,51.50
2019-05-17T21:59:21.801Z,51.50
2019-05-17T22:01:49.969Z,51.70
2019-05-17T22:04:18.201Z,51.60
2019-05-17T22:06:46.258Z,51.60
2019-05-17T22:09:14.397Z,51.60
2019-05-17T22:11:44.716Z,51.30
2019-05-17T22:14:12.875Z,51.40
2019-05-17T22:16:40.846Z,51.30
2019-05-17T22:19:08.734Z,51.90
2019-05-17T22:21:36.457Z,51.20
2019-05-17T22:24:04.338Z,51.20
2019-05-17T22:26:32.270Z,51.30
2019-05-17T22:29:00.010Z,51.00
2019-05-17T22:31:28.037Z,51.80
2019-05-17T22:33:56.028Z,51.20
2019-05-17T22:36:23.977Z,50.90
2019-05-17T22:38:51.856Z,50.90
2019-05-17T22:41:19.652Z,50.90
2019-05-17T22:43:47.472Z,50.90
2019-05-17T22:46:15.405Z,50.80
2019-05-17T22:48:43.309Z,50.80
2019-05-17T22:51:11.059Z,51.30
2019-05-17T22:53:38.952Z,50.80
2019-05-17T22:56:06.900Z,50.70
2019-05-17T22:58:34.887Z,50.40
2019-05-17T23:01:02.642Z,50.50
2019-05-17T23:03:30.526Z,50.50
2019-05-17T23:05:58.477Z,50.40
2019-05-17T23:08:26.268Z,50.30
2019-05-17T23:10:54.231Z,50.40
2019-05-17T23:13:22.099Z,50.30
2019-05-17T23:16:03.059Z,50.20
2019-05-17T23:18:31.658Z,50.20
2019-05-17T23:20:59.621Z,50.30
2019-05-17T23:23:27.466Z,50.30
2019-05-17T23:25:55.445Z,50.30
2019-05-17T23:28:23.310Z,50.30
2019-05-17T23:30:51.382Z,50.30
2019-05-17T23:33:19.291Z,50.30
2019-05-17T23:35:47.206Z,50.20
2019-05-17T23:38:15.142Z,50.20
2019-05-17T23:40:43.146Z,50.00
2019-05-17T23:43:11.135Z,50.00
2019-05-17T23:45:39.186Z,49.90
2019-05-17T23:48:07.067Z,49.90
2019-05-17T23:50:35.022Z,49.80
2019-05-17T23:53:02.986Z,49.90
2019-05-17T23:55:30.811Z,49.70
2019-05-17T23:57:58.729Z,49.80
